createdAt,value
2022-09-21T00:00:20.559Z,1.00
2022-09-21T00:02:50.450Z,1.15
2022-09-21T00:05:21.589Z,1.23
2022-09-21T00:07:51.765Z,0.90
2022-09-21T00:10:22.694Z,0.90
2022-09-21T00:12:52.475Z,0.88
2022-09-21T00:15:22.258Z,0.95
2022-09-21T00:17:54.825Z,1.10
2022-09-21T00:20:27.961Z,1.20
2022-09-21T00:22:58.023Z,1.02
2022-09-21T00:25:28.257Z,1.20
2022-09-21T00:27:58.419Z,1.17
2022-09-21T00:30:28.684Z,0.98
2022-09-21T00:32:58.729Z,1.20
2022-09-21T00:35:30.018Z,2.10
2022-09-21T00:38:02.803Z,1.10
2022-09-21T00:40:33.343Z,1.00
2022-09-21T00:43:14.095Z,0.90
2022-09-21T00:45:45.886Z,1.05
2022-09-21T00:48:16.476Z,1.20
2022-09-21T00:50:54.898Z,1.00
2022-09-21T00:53:24.776Z,1.00
2022-09-21T00:55:58.443Z,2.05
2022-09-21T00:58:32.590Z,1.02
2022-09-21T01:01:02.559Z,1.00
2022-09-21T01:03:33.527Z,1.20
2022-09-21T01:06:04.995Z,1.50
2022-09-21T01:08:35.294Z,1.13
2022-09-21T01:11:25.251Z,1.15
2022-09-21T01:14:15.264Z,1.20
2022-09-21T01:16:52.850Z,1.30
2022-09-21T01:19:47.707Z,1.00
2022-09-21T01:22:28.010Z,1.33
2022-09-21T01:25:13.622Z,1.17
2022-09-21T01:27:55.069Z,1.50
2022-09-21T01:30:27.049Z,1.17
2022-09-21T01:33:04.186Z,1.05
2022-09-21T01:35:38.918Z,1.10
2022-09-21T01:38:13.832Z,1.25
2022-09-21T01:40:47.289Z,1.17
2022-09-21T01:45:55.630Z,1.17
2022-09-21T01:48:26.962Z,1.60
2022-09-21T01:50:59.079Z,2.20
2022-09-21T01:53:34.636Z,1.38
2022-09-21T01:56:11.902Z,1.40
2022-09-21T01:58:47.152Z,1.30
2022-09-21T02:01:22.258Z,1.45
2022-09-21T02:03:56.443Z,1.15
2022-09-21T02:06:27.160Z,1.85
2022-09-21T02:08:58.988Z,1.85
2022-09-21T02:11:29.036Z,1.40
2022-09-21T02:13:59.563Z,2.28
2022-09-21T02:16:38.879Z,1.50
2022-09-21T02:19:13.971Z,1.35
2022-09-21T02:21:55.672Z,1.33
2022-09-21T02:24:35.068Z,1.67
2022-09-21T02:27:07.678Z,1.67
2022-09-21T02:29:48.362Z,1.67
2022-09-21T02:32:30.401Z,1.73
2022-09-21T02:35:04.982Z,1.70
2022-09-21T02:37:38.743Z,1.88
2022-09-21T02:40:23.890Z,2.03
2022-09-21T02:42:58.030Z,1.92
2022-09-21T02:45:34.355Z,1.88
2022-09-21T02:48:10.728Z,1.55
2022-09-21T02:50:45.623Z,2.00
2022-09-21T02:53:20.108Z,1.55
2022-09-21T02:55:56.190Z,1.70
2022-09-21T02:58:29.528Z,1.60
2022-09-21T03:01:00.622Z,1.83
2022-09-21T03:03:32.049Z,2.05
2022-09-21T03:06:02.880Z,1.63
2022-09-21T03:08:32.750Z,1.73
2022-09-21T03:11:02.922Z,1.67
2022-09-21T03:13:33.262Z,1.92
2022-09-21T03:16:05.639Z,1.88
2022-09-21T03:18:37.404Z,2.10
2022-09-21T03:21:08.161Z,2.50
2022-09-21T03:23:38.052Z,1.92
2022-09-21T03:26:08.535Z,2.40
2022-09-21T03:28:38.607Z,3.67
2022-09-21T03:31:08.649Z,2.47
2022-09-21T03:33:40.122Z,2.90
2022-09-21T03:36:10.887Z,2.22
2022-09-21T03:38:42.724Z,2.53
2022-09-21T03:41:13.597Z,2.38
2022-09-21T03:43:44.842Z,2.20
2022-09-21T03:46:14.752Z,2.40
2022-09-21T03:48:47.586Z,2.60
2022-09-21T03:51:17.720Z,2.50
2022-09-21T03:53:48.957Z,2.83
2022-09-21T03:56:18.626Z,2.22
2022-09-21T03:58:48.440Z,2.38
2022-09-21T04:01:18.513Z,2.78
2022-09-21T04:03:50.026Z,2.20
2022-09-21T04:06:20.218Z,2.45
2022-09-21T04:08:50.134Z,2.88
2022-09-21T04:11:23.096Z,2.97
2022-09-21T04:13:57.414Z,5.82
2022-09-21T04:16:28.225Z,22.67
2022-09-21T04:18:59.525Z,10.23
2022-09-21T04:21:29.983Z,4.32
2022-09-21T04:24:00.282Z,4.25
2022-09-21T04:26:31.587Z,3.42
2022-09-21T04:29:02.109Z,3.20
2022-09-21T04:31:33.338Z,3.75
2022-09-21T04:34:04.741Z,3.55
2022-09-21T04:36:36.813Z,3.70
2022-09-21T04:39:07.460Z,3.00
2022-09-21T04:41:37.431Z,3.80
2022-09-21T04:44:07.368Z,3.85
2022-09-21T04:46:37.469Z,3.70
2022-09-21T04:49:08.872Z,4.22
2022-09-21T04:51:39.095Z,4.63
2022-09-21T04:54:09.032Z,6.18
2022-09-21T04:56:38.912Z,6.93
2022-09-21T04:59:08.779Z,4.47
2022-09-21T05:01:38.733Z,5.03
2022-09-21T05:04:10.325Z,5.18
2022-09-21T05:06:40.136Z,4.85
2022-09-21T05:09:27.459Z,4.45
2022-09-21T05:11:57.367Z,8.95
2022-09-21T05:14:27.711Z,6.10
2022-09-21T05:16:57.561Z,4.80
2022-09-21T05:19:29.683Z,4.63
2022-09-21T05:21:59.376Z,4.25
2022-09-21T05:24:29.520Z,3.88
2022-09-21T05:27:00.828Z,4.10
2022-09-21T05:29:31.319Z,3.65
2022-09-21T05:32:07.769Z,3.95
2022-09-21T05:34:52.278Z,3.47
2022-09-21T05:37:42.103Z,5.18
2022-09-21T05:40:14.497Z,3.35
2022-09-21T05:42:45.585Z,2.85
2022-09-21T05:45:18.037Z,3.00
2022-09-21T05:47:55.413Z,2.67
2022-09-21T05:50:49.659Z,3.08
2022-09-21T05:53:43.766Z,2.83
2022-09-21T05:56:25.500Z,2.80
2022-09-21T05:59:00.687Z,3.00
2022-09-21T06:01:42.389Z,3.00
2022-09-21T06:04:13.672Z,2.70
2022-09-21T06:06:45.783Z,3.40
2022-09-21T06:09:15.673Z,2.70
2022-09-21T06:11:45.496Z,2.65
2022-09-21T06:14:15.321Z,2.25
2022-09-21T06:16:45.162Z,3.17
2022-09-21T06:19:16.354Z,2.92
2022-09-21T06:21:48.159Z,2.88
2022-09-21T06:24:17.868Z,3.08
2022-09-21T06:26:47.690Z,3.40
2022-09-21T06:29:18.818Z,3.15
2022-09-21T06:31:48.616Z,4.63
2022-09-21T06:34:18.887Z,3.22
2022-09-21T06:36:50.004Z,4.05
2022-09-21T06:39:20.014Z,3.20
2022-09-21T06:41:49.960Z,3.63
2022-09-21T06:44:19.707Z,3.95
2022-09-21T06:46:49.678Z,3.33
2022-09-21T06:49:19.681Z,3.30
2022-09-21T06:51:51.072Z,2.70
2022-09-21T06:54:20.930Z,3.25
2022-09-21T06:56:50.791Z,2.92
2022-09-21T06:59:20.569Z,3.05
2022-09-21T07:01:50.426Z,3.33
2022-09-21T07:05:15.382Z,3.13
2022-09-21T07:08:05.393Z,2.55
2022-09-21T07:10:35.255Z,2.70
2022-09-21T07:13:07.095Z,2.88
2022-09-21T07:15:36.949Z,2.60
2022-09-21T07:18:13.008Z,3.85
2022-09-21T07:20:44.437Z,2.72
2022-09-21T07:23:17.392Z,3.28
2022-09-21T07:25:50.574Z,3.00
2022-09-21T07:28:20.982Z,3.00
2022-09-21T07:30:51.037Z,3.05
2022-09-21T07:33:20.873Z,2.80
2022-09-21T07:35:52.941Z,2.42
2022-09-21T07:38:24.649Z,2.67
2022-09-21T07:40:54.664Z,2.60
2022-09-21T07:43:24.681Z,1.77
2022-09-21T07:45:55.035Z,2.50
2022-09-21T07:48:24.896Z,2.50
2022-09-21T07:50:54.901Z,2.25
2022-09-21T07:53:26.647Z,2.42
2022-09-21T07:56:02.184Z,2.38
2022-09-21T07:58:49.753Z,2.13
2022-09-21T08:01:19.829Z,2.53
2022-09-21T08:03:50.668Z,2.33
2022-09-21T08:06:21.281Z,1.92
2022-09-21T08:08:57.735Z,2.30
2022-09-21T08:11:30.685Z,2.10
2022-09-21T08:14:02.426Z,2.08
2022-09-21T08:16:33.999Z,2.85
2022-09-21T08:19:05.448Z,2.17
2022-09-21T08:21:35.646Z,2.05
2022-09-21T08:24:07.658Z,2.15
2022-09-21T08:26:37.835Z,2.20
2022-09-21T08:29:07.581Z,2.08
2022-09-21T08:31:37.590Z,2.05
2022-09-21T08:34:07.550Z,2.65
2022-09-21T08:36:37.556Z,2.15
2022-09-21T08:39:09.497Z,2.42
2022-09-21T08:41:55.770Z,2.15
2022-09-21T08:44:30.620Z,2.47
2022-09-21T08:47:07.307Z,3.40
2022-09-21T08:49:39.572Z,3.33
2022-09-21T08:52:16.607Z,4.30
2022-09-21T08:54:56.375Z,3.17
2022-09-21T08:57:30.617Z,3.38
2022-09-21T09:00:03.339Z,4.25
2022-09-21T09:02:44.364Z,2.92
2022-09-21T09:05:29.386Z,2.80
2022-09-21T09:08:21.487Z,3.33
2022-09-21T09:11:06.143Z,4.38
2022-09-21T09:14:05.320Z,4.28
2022-09-21T09:16:42.067Z,5.05
2022-09-21T09:19:24.034Z,4.30
2022-09-21T09:21:55.269Z,4.07
2022-09-21T09:24:34.178Z,4.45
2022-09-21T09:27:11.655Z,4.18
2022-09-21T09:29:50.299Z,4.50
2022-09-21T09:32:22.606Z,4.05
2022-09-21T09:34:56.967Z,3.38
2022-09-21T09:37:34.945Z,3.05
2022-09-21T09:40:08.738Z,3.15
2022-09-21T09:43:01.312Z,3.55
2022-09-21T09:45:47.662Z,4.15
2022-09-21T09:48:39.835Z,3.47
2022-09-21T09:51:12.560Z,3.13
2022-09-21T09:53:42.497Z,2.03
2022-09-21T09:56:14.852Z,2.20
2022-09-21T09:58:53.674Z,2.80
2022-09-21T10:01:43.194Z,2.20
2022-09-21T10:04:15.419Z,2.00
2022-09-21T10:06:47.120Z,2.03
2022-09-21T10:09:24.289Z,1.88
2022-09-21T10:11:56.538Z,1.40
2022-09-21T10:14:30.765Z,1.50
2022-09-21T10:17:06.917Z,2.17
2022-09-21T10:19:38.206Z,1.73
2022-09-21T10:22:08.104Z,2.63
2022-09-21T10:24:40.750Z,1.83
2022-09-21T10:27:15.444Z,1.87
2022-09-21T10:29:48.091Z,1.90
2022-09-21T10:32:23.654Z,2.00
2022-09-21T10:35:19.246Z,1.83
2022-09-21T10:37:53.662Z,1.67
2022-09-21T10:40:26.770Z,1.85
2022-09-21T10:42:59.096Z,1.52
2022-09-21T10:45:31.708Z,1.60
2022-09-21T10:48:11.002Z,1.35
2022-09-21T10:50:42.723Z,2.53
2022-09-21T10:53:20.944Z,2.13
2022-09-21T10:56:15.577Z,2.40
2022-09-21T10:59:20.151Z,1.58
2022-09-21T11:01:53.791Z,1.70
2022-09-21T11:04:32.156Z,2.10
2022-09-21T11:07:10.295Z,1.85
2022-09-21T11:09:46.787Z,1.45
2022-09-21T11:12:34.410Z,1.40
2022-09-21T11:15:16.887Z,1.60
2022-09-21T11:17:53.384Z,1.45
2022-09-21T11:20:29.315Z,1.30
2022-09-21T11:23:06.076Z,1.40
2022-09-21T11:25:44.348Z,1.58
2022-09-21T11:28:20.648Z,1.75
2022-09-21T11:31:25.827Z,1.38
2022-09-21T11:34:16.564Z,1.90
2022-09-21T11:36:57.409Z,1.60
2022-09-21T11:39:39.629Z,1.60
2022-09-21T11:42:23.225Z,0.95
2022-09-21T11:44:56.392Z,1.42
2022-09-21T11:48:00.169Z,1.63
2022-09-21T11:50:43.697Z,1.40
2022-09-21T11:53:38.168Z,1.27
2022-09-21T11:56:49.233Z,1.35
2022-09-21T11:59:35.248Z,1.45
2022-09-21T12:02:31.526Z,1.40
2022-09-21T12:05:07.959Z,1.40
2022-09-21T12:08:04.707Z,1.48
2022-09-21T12:10:41.365Z,1.48
2022-09-21T12:13:22.671Z,1.55
2022-09-21T12:16:00.008Z,1.70
2022-09-21T12:18:43.801Z,1.27
2022-09-21T12:21:20.906Z,1.23
2022-09-21T12:23:55.211Z,1.10
2022-09-21T12:26:29.190Z,1.10
2022-09-21T12:29:03.510Z,1.15
2022-09-21T12:31:40.788Z,1.45
2022-09-21T12:34:17.135Z,1.38
2022-09-21T12:36:56.702Z,1.30
2022-09-21T12:39:32.563Z,1.65
2022-09-21T12:42:08.788Z,1.20
2022-09-21T12:44:53.007Z,0.98
2022-09-21T12:50:02.915Z,1.13
2022-09-21T12:52:34.997Z,1.40
2022-09-21T12:55:32.270Z,1.60
2022-09-21T12:58:15.576Z,1.40
2022-09-21T13:00:53.931Z,1.33
2022-09-21T13:03:32.048Z,2.42
2022-09-21T13:06:35.095Z,1.60
2022-09-21T13:09:09.971Z,1.75
2022-09-21T13:12:00.291Z,1.50
2022-09-21T13:14:34.782Z,1.70
2022-09-21T13:19:36.875Z,2.25
2022-09-21T13:22:20.691Z,1.63
2022-09-21T13:25:03.083Z,2.03
2022-09-21T13:28:01.429Z,1.50
2022-09-21T13:30:40.540Z,1.95
2022-09-21T13:33:32.344Z,2.10
2022-09-21T13:36:30.141Z,1.92
2022-09-21T13:39:21.175Z,2.10
2022-09-21T13:42:02.901Z,2.28
2022-09-21T13:44:42.444Z,2.40
2022-09-21T13:47:12.504Z,2.42
2022-09-21T13:49:50.904Z,1.42
2022-09-21T13:52:30.083Z,2.42
2022-09-21T13:55:02.436Z,2.28
2022-09-21T13:57:38.015Z,3.28
2022-09-21T14:00:33.403Z,3.03
2022-09-21T14:03:07.714Z,3.78
2022-09-21T14:05:42.690Z,2.72
2022-09-21T14:08:24.374Z,3.83
2022-09-21T14:10:59.213Z,2.60
2022-09-21T14:13:35.839Z,3.05
2022-09-21T14:16:45.574Z,3.20
2022-09-21T14:19:51.203Z,3.53
2022-09-21T14:22:42.718Z,2.80
2022-09-21T14:25:51.138Z,2.95
2022-09-21T14:28:35.196Z,2.60
2022-09-21T14:31:09.377Z,2.58
2022-09-21T14:33:47.752Z,2.50
2022-09-21T14:36:22.498Z,2.67
2022-09-21T14:39:00.504Z,3.20
2022-09-21T14:41:34.553Z,3.60
2022-09-21T14:44:04.646Z,3.35
2022-09-21T14:46:51.474Z,3.13
2022-09-21T14:49:34.906Z,4.15
2022-09-21T14:52:22.236Z,3.20
2022-09-21T14:55:03.277Z,4.20
2022-09-21T14:57:48.476Z,2.95
2022-09-21T15:00:23.435Z,3.30
2022-09-21T15:03:25.925Z,2.90
2022-09-21T15:06:22.278Z,2.92
2022-09-21T15:09:28.228Z,2.88
2022-09-21T15:12:07.259Z,2.67
2022-09-21T15:14:42.491Z,3.17
2022-09-21T15:17:27.292Z,3.55
2022-09-21T15:20:00.833Z,2.85
2022-09-21T15:22:32.009Z,2.50
2022-09-21T15:25:06.025Z,2.15
2022-09-21T15:27:37.858Z,2.10
2022-09-21T15:30:19.436Z,2.55
2022-09-21T15:32:54.228Z,1.73
2022-09-21T15:35:27.748Z,2.53
2022-09-21T15:38:00.054Z,2.20
2022-09-21T15:40:33.928Z,1.75
2022-09-21T15:43:06.724Z,2.28
2022-09-21T15:45:51.781Z,3.72
2022-09-21T15:48:22.230Z,4.82
2022-09-21T15:50:57.944Z,6.95
2022-09-21T15:53:31.943Z,3.63
2022-09-21T15:56:03.037Z,3.20
2022-09-21T15:58:37.305Z,2.92
2022-09-21T16:01:12.648Z,3.10
2022-09-21T16:03:45.193Z,3.42
2022-09-21T16:06:28.728Z,3.40
2022-09-21T16:08:58.765Z,2.58
2022-09-21T16:11:37.837Z,3.17
2022-09-21T16:14:30.406Z,2.92
2022-09-21T16:17:26.378Z,3.60
2022-09-21T16:20:16.065Z,3.03
2022-09-21T16:22:48.098Z,3.25
2022-09-21T16:25:25.964Z,2.88
2022-09-21T16:27:58.671Z,2.90
2022-09-21T16:30:51.165Z,2.80
2022-09-21T16:33:36.667Z,2.60
2022-09-21T16:36:31.724Z,3.00
2022-09-21T16:39:06.137Z,3.05
2022-09-21T16:41:39.924Z,3.45
2022-09-21T16:44:16.305Z,3.63
2022-09-21T16:46:49.193Z,3.30
2022-09-21T16:49:21.824Z,3.72
2022-09-21T16:51:52.193Z,3.65
2022-09-21T16:54:25.296Z,3.95
2022-09-21T16:56:57.414Z,4.20
2022-09-21T16:59:27.966Z,3.90
2022-09-21T17:02:00.672Z,3.13
2022-09-21T17:04:32.789Z,2.90
2022-09-21T17:07:05.046Z,2.53
2022-09-21T17:09:38.377Z,2.28
2022-09-21T17:12:11.162Z,2.53
2022-09-21T17:14:46.703Z,2.47
2022-09-21T17:17:21.377Z,2.80
2022-09-21T17:19:54.191Z,3.40
2022-09-21T17:22:25.523Z,2.83
2022-09-21T17:24:55.933Z,2.05
2022-09-21T17:27:32.143Z,3.03
2022-09-21T17:30:03.560Z,3.15
2022-09-21T17:32:38.533Z,2.88
2022-09-21T17:35:17.012Z,2.83
2022-09-21T17:37:47.251Z,2.53
2022-09-21T17:40:18.168Z,2.80
2022-09-21T17:42:48.672Z,2.42
2022-09-21T17:45:27.065Z,2.63
2022-09-21T17:47:59.027Z,3.33
2022-09-21T17:50:29.647Z,2.33
2022-09-21T17:53:17.548Z,2.38
2022-09-21T17:55:54.519Z,3.00
2022-09-21T17:58:42.860Z,2.30
2022-09-21T18:01:23.668Z,2.58
2022-09-21T18:03:55.662Z,2.88
2022-09-21T18:06:26.923Z,2.35
2022-09-21T18:08:57.921Z,3.10
2022-09-21T18:12:04.569Z,2.20
2022-09-21T18:14:45.747Z,2.47
2022-09-21T18:17:29.613Z,2.28
2022-09-21T18:20:14.156Z,2.30
2022-09-21T18:22:55.215Z,2.60
2022-09-21T18:25:30.672Z,2.60
2022-09-21T18:28:07.919Z,2.30
2022-09-21T18:30:41.482Z,2.03
2022-09-21T18:33:21.719Z,2.35
2022-09-21T18:36:03.848Z,2.78
2022-09-21T18:38:41.498Z,3.20
2022-09-21T18:41:19.391Z,3.13
2022-09-21T18:44:04.689Z,2.83
2022-09-21T18:46:48.961Z,3.10
2022-09-21T18:52:00.788Z,3.53
2022-09-21T18:54:31.673Z,3.40
2022-09-21T18:57:02.009Z,2.95
2022-09-21T18:59:32.323Z,2.70
2022-09-21T19:02:03.001Z,2.40
2022-09-21T19:04:34.240Z,2.25
2022-09-21T19:07:13.778Z,2.15
2022-09-21T19:09:52.557Z,2.30
2022-09-21T19:12:32.658Z,2.45
2022-09-21T19:15:17.121Z,2.72
2022-09-21T19:18:01.606Z,2.35
2022-09-21T19:20:58.013Z,2.45
2022-09-21T19:23:41.841Z,2.05
2022-09-21T19:26:23.298Z,2.50
2022-09-21T19:29:10.374Z,3.15
2022-09-21T19:31:40.618Z,3.17
2022-09-21T19:34:14.925Z,2.28
2022-09-21T19:36:47.389Z,2.85
2022-09-21T19:39:19.828Z,3.05
2022-09-21T19:42:03.322Z,2.17
2022-09-21T19:44:50.043Z,2.80
2022-09-21T19:47:29.331Z,2.70
2022-09-21T19:50:16.641Z,3.03
2022-09-21T19:52:48.525Z,2.60
2022-09-21T19:55:47.646Z,2.30
2022-09-21T19:58:35.531Z,3.20
2022-09-21T20:01:05.784Z,2.60
2022-09-21T20:03:40.611Z,2.60
2022-09-21T20:06:18.024Z,2.22
2022-09-21T20:08:53.912Z,2.13
2022-09-21T20:11:35.871Z,1.95
2022-09-21T20:14:19.235Z,2.20
2022-09-21T20:16:51.851Z,2.20
2022-09-21T20:19:35.187Z,2.37
2022-09-21T20:22:13.299Z,2.30
2022-09-21T20:24:52.180Z,1.92
2022-09-21T20:27:35.081Z,2.15
2022-09-21T20:30:06.953Z,2.55
2022-09-21T20:32:38.411Z,2.33
2022-09-21T20:35:16.044Z,2.05
2022-09-21T20:37:46.730Z,2.40
2022-09-21T20:40:17.314Z,2.42
2022-09-21T20:42:48.589Z,2.17
2022-09-21T20:45:19.142Z,2.03
2022-09-21T20:47:50.040Z,2.17
2022-09-21T20:50:20.655Z,2.15
2022-09-21T20:52:50.685Z,2.22
2022-09-21T20:55:20.530Z,2.05
2022-09-21T20:57:53.227Z,1.83
2022-09-21T21:00:23.052Z,3.47
2022-09-21T21:02:53.315Z,2.65
2022-09-21T21:05:23.001Z,2.78
2022-09-21T21:07:53.171Z,2.50
2022-09-21T21:10:23.262Z,2.50
2022-09-21T21:12:54.537Z,3.40
2022-09-21T21:15:24.466Z,2.67
2022-09-21T21:17:54.512Z,2.83
2022-09-21T21:20:24.431Z,3.08
2022-09-21T21:22:54.828Z,2.83
2022-09-21T21:25:24.616Z,2.40
2022-09-21T21:27:59.206Z,3.13
2022-09-21T21:30:28.991Z,3.03
2022-09-21T21:32:59.065Z,2.90
2022-09-21T21:35:30.173Z,2.53
2022-09-21T21:37:59.962Z,2.85
2022-09-21T21:40:30.643Z,3.08
2022-09-21T21:43:03.874Z,3.05
2022-09-21T21:45:33.990Z,2.78
2022-09-21T21:48:04.806Z,2.65
2022-09-21T21:50:35.911Z,2.38
2022-09-21T21:53:06.616Z,2.83
2022-09-21T21:55:36.539Z,2.70
2022-09-21T21:58:07.807Z,2.90
2022-09-21T22:00:37.600Z,2.45
2022-09-21T22:03:07.346Z,3.15
2022-09-21T22:05:38.404Z,2.50
2022-09-21T22:08:08.495Z,2.22
2022-09-21T22:10:38.265Z,2.38
2022-09-21T22:13:12.703Z,2.40
2022-09-21T22:15:42.842Z,2.17
2022-09-21T22:18:12.767Z,2.15
2022-09-21T22:20:42.666Z,2.35
2022-09-21T22:23:12.368Z,2.03
2022-09-21T22:25:42.915Z,2.40
2022-09-21T22:28:14.215Z,1.90
2022-09-21T22:30:49.878Z,1.70
2022-09-21T22:33:19.639Z,2.40
2022-09-21T22:35:49.422Z,2.40
2022-09-21T22:38:19.186Z,2.22
2022-09-21T22:40:49.652Z,2.50
2022-09-21T22:43:20.995Z,2.20
2022-09-21T22:45:50.770Z,2.53
2022-09-21T22:48:20.588Z,2.42
2022-09-21T22:50:50.391Z,2.10
2022-09-21T22:53:20.522Z,2.45
2022-09-21T22:55:50.301Z,2.10
2022-09-21T22:58:21.472Z,2.10
2022-09-21T23:00:51.275Z,2.33
2022-09-21T23:03:21.009Z,2.72
2022-09-21T23:05:57.391Z,2.10
2022-09-21T23:08:28.138Z,1.95
2022-09-21T23:11:05.876Z,2.17
2022-09-21T23:13:37.249Z,2.45
2022-09-21T23:16:09.429Z,2.00
2022-09-21T23:18:40.775Z,2.40
2022-09-21T23:21:13.285Z,2.10
2022-09-21T23:23:43.638Z,2.97
2022-09-21T23:26:15.352Z,3.45
2022-09-21T23:28:52.623Z,3.00
2022-09-21T23:31:22.977Z,2.90
2022-09-21T23:33:54.375Z,2.92
2022-09-21T23:36:27.583Z,2.75
2022-09-21T23:38:58.059Z,3.08
2022-09-21T23:41:29.701Z,3.35
2022-09-21T23:44:01.611Z,3.05
2022-09-21T23:46:33.912Z,3.33
2022-09-21T23:49:04.246Z,2.70
2022-09-21T23:51:34.464Z,3.08
2022-09-21T23:54:04.856Z,3.13
2022-09-21T23:56:35.364Z,3.03
2022-09-21T23:59:06.991Z,2.75
